Time;durP1;ratioP1;P1;durP2;ratioP2;P2;SDS_P1;SDS_P2;PMS_P1;PMS_P2;Temp;Humidity;BMP_temperature;BMP_pressure;BME280_temperature;BME280_humidity;BME280_pressure;Samples;Min_cycle;Max_cycle;Signal;HPM_P1;HPM_P2
2024/01/20 00:00:26;;;;;;;21.37;12.53;;;;;;;-1.79;100.00;150915.78;4992829;28;20565;-84
2024/01/20 00:02:54;;;;;;;20.87;13.23;;;;;;;-1.80;100.00;150913.22;4990264;28;20455;-85
2024/01/20 00:05:22;;;;;;;21.07;11.77;;;;;;;-1.84;100.00;150902.97;4993291;28;20497;-84
2024/01/20 00:07:49;;;;;;;22.40;12.47;;;;;;;-1.83;100.00;150906.81;4991713;28;20505;-85
2024/01/20 00:10:17;;;;;;;17.17;11.20;;;;;;;-1.78;100.00;150918.38;4995342;28;20459;-85
2024/01/20 00:12:45;;;;;;;12.40;9.90;;;;;;;-1.78;100.00;150917.09;4991265;28;20479;-84
2024/01/20 00:15:12;;;;;;;16.03;10.67;;;;;;;-1.75;100.00;150926.06;5009357;28;21000;-85
2024/01/20 00:17:42;;;;;;;16.10;10.63;;;;;;;-1.72;100.00;150933.72;4991918;28;20460;-85
2024/01/20 00:20:10;;;;;;;20.37;11.63;;;;;;;-1.68;100.00;150943.97;5009606;28;20456;-84
2024/01/20 00:22:38;;;;;;;16.40;10.57;;;;;;;-1.59;100.00;150965.78;4992034;28;20437;-85
2024/01/20 00:25:05;;;;;;;17.60;11.50;;;;;;;-1.65;100.00;150951.69;5005759;28;20465;-85
2024/01/20 00:27:33;;;;;;;16.23;10.73;;;;;;;-1.66;100.00;150949.09;4989678;28;20550;-85
2024/01/20 00:30:01;;;;;;;22.87;12.00;;;;;;;-1.73;100.00;150929.88;5008660;28;20459;-85
2024/01/20 00:32:29;;;;;;;22.70;11.80;;;;;;;-1.64;100.00;150952.97;5009542;28;20970;-85
2024/01/20 00:34:58;;;;;;;14.87;10.20;;;;;;;-1.65;100.00;150951.69;4994032;28;20788;-85
2024/01/20 00:37:25;;;;;;;19.10;11.80;;;;;;;-1.56;100.00;150974.72;5027907;28;20480;-84
2024/01/20 00:39:53;;;;;;;24.10;13.57;;;;;;;-2.04;100.00;150851.78;5012374;28;20476;-85
2024/01/20 00:42:20;;;;;;;18.40;12.33;;;;;;;-2.32;100.00;150780.03;4993561;28;20521;-85
2024/01/20 00:44:47;;;;;;;17.83;11.60;;;;;;;-2.51;100.00;150732.66;5009435;28;20472;-85
2024/01/20 00:47:15;;;;;;;18.13;11.60;;;;;;;-2.43;100.00;150751.84;5012941;28;20474;-85
2024/01/20 00:49:43;;;;;;;18.53;11.90;;;;;;;-2.23;100.00;150804.38;4991778;28;20460;-85
2024/01/20 00:52:12;;;;;;;19.13;10.90;;;;;;;-2.17;100.00;150819.72;4993444;28;20455;-85
2024/01/20 00:54:39;;;;;;;11.80;8.13;;;;;;;-2.11;100.00;150833.81;5004192;28;20894;-85
2024/01/20 00:57:07;;;;;;;20.57;11.63;;;;;;;-2.10;100.00;150836.38;5007271;28;20462;-85
2024/01/20 00:59:34;;;;;;;19.10;12.00;;;;;;;-2.08;100.00;150841.50;4983491;28;20452;-85
2024/01/20 01:02:02;;;;;;;18.03;11.80;;;;;;;-2.02;100.00;150856.88;4988418;28;20480;-86
2024/01/20 01:04:30;;;;;;;20.50;12.90;;;;;;;-1.99;100.00;150865.84;4997246;28;20464;-85
2024/01/20 01:06:57;;;;;;;17.53;12.10;;;;;;;-2.03;100.00;150854.31;5003704;28;20472;-85
2024/01/20 01:09:26;;;;;;;19.40;12.27;;;;;;;-2.04;100.00;150851.78;5018070;28;20464;-86
2024/01/20 01:11:54;;;;;;;20.50;13.47;;;;;;;-2.08;100.00;150841.50;4993178;28;20538;-86
2024/01/20 01:14:21;;;;;;;22.60;12.37;;;;;;;-2.06;100.00;150846.59;4986348;28;20484;-86
2024/01/20 01:16:49;;;;;;;19.03;11.73;;;;;;;-2.07;100.00;150844.06;4995565;28;20772;-85
2024/01/20 01:19:16;;;;;;;18.57;11.90;;;;;;;-2.04;100.00;150853.00;4984773;28;20452;-86
2024/01/20 01:21:44;;;;;;;23.47;15.37;;;;;;;-2.18;100.00;150815.91;4990913;28;20484;-85
2024/01/20 01:24:11;;;;;;;24.10;14.00;;;;;;;-2.41;100.00;150758.28;5012280;28;21006;-86
2024/01/20 01:26:41;;;;;;;19.07;12.57;;;;;;;-2.36;100.00;150771.09;5012549;28;20451;-86
2024/01/20 01:29:09;;;;;;;27.97;14.67;;;;;;;-2.34;100.00;150774.91;5008522;28;20444;-85
2024/01/20 01:31:35;;;;;;;24.90;14.13;;;;;;;-2.31;100.00;150782.59;4994969;28;20560;-86
2024/01/20 01:34:03;;;;;;;19.40;13.23;;;;;;;-2.30;100.00;150785.19;4993087;28;20882;-86
2024/01/20 01:36:31;;;;;;;22.87;15.40;;;;;;;-2.29;100.00;150787.72;4994389;28;20943;-86
2024/01/20 01:39:00;;;;;;;23.17;13.27;;;;;;;-2.24;100.00;150801.81;4991902;28;20456;-86
2024/01/20 01:41:28;;;;;;;22.00;13.23;;;;;;;-2.11;100.00;150833.81;4991462;28;20985;-86
2024/01/20 01:43:57;;;;;;;19.77;14.20;;;;;;;-2.16;100.00;150821.00;5006357;28;20487;-86
2024/01/20 01:46:26;;;;;;;21.80;13.67;;;;;;;-2.20;100.00;150810.78;4998841;28;20587;-86
2024/01/20 01:48:53;;;;;;;23.03;14.10;;;;;;;-2.22;100.00;150806.91;5011950;28;20736;-86
2024/01/20 01:51:21;;;;;;;24.40;12.83;;;;;;;-2.23;100.00;150803.09;5029508;28;20506;-86
2024/01/20 01:53:52;;;;;;;21.80;13.40;;;;;;;-2.20;100.00;150810.78;5032113;28;21039;-85
2024/01/20 01:56:19;;;;;;;21.60;12.43;;;;;;;-2.12;100.00;150831.28;5027170;28;20457;-86
2024/01/20 01:58:47;;;;;;;24.13;12.53;;;;;;;-2.04;100.00;150851.78;5012194;28;20921;-86
2024/01/20 02:01:16;;;;;;;22.63;12.13;;;;;;;-1.97;100.00;150869.69;5011596;28;20481;-86
2024/01/20 02:03:44;;;;;;;22.60;12.00;;;;;;;-2.05;100.00;150849.19;5011929;28;20534;-86
2024/01/20 02:06:11;;;;;;;18.93;11.73;;;;;;;-2.08;100.00;150842.78;5028302;28;20824;-86
2024/01/20 02:08:41;;;;;;;22.10;13.30;;;;;;;-2.09;100.00;150840.22;5007511;28;20459;-85
2024/01/20 02:11:08;;;;;;;21.00;12.73;;;;;;;-2.13;100.00;150828.69;5013049;28;20512;-85
2024/01/20 02:13:37;;;;;;;26.67;13.83;;;;;;;-2.11;100.00;150835.09;5029242;28;20542;-85
2024/01/20 02:16:05;;;;;;;22.53;12.70;;;;;;;-2.17;100.00;150819.72;5012865;28;20469;-86
2024/01/20 02:18:34;;;;;;;22.27;14.00;;;;;;;-2.18;100.00;150815.91;5009995;28;20565;-86
2024/01/20 02:21:01;;;;;;;20.23;11.70;;;;;;;-2.20;100.00;150812.06;5011134;28;20490;-86
2024/01/20 02:23:31;;;;;;;20.03;12.27;;;;;;;-2.12;100.00;150832.50;5012153;28;20454;-86
2024/01/20 02:25:58;;;;;;;21.10;12.60;;;;;;;-2.09;100.00;150838.97;5011414;28;20945;-86
2024/01/20 02:28:26;;;;;;;20.70;12.63;;;;;;;-2.03;100.00;150854.31;5012882;28;21052;-86
2024/01/20 02:30:54;;;;;;;22.20;12.60;;;;;;;-2.02;100.00;150856.88;5010900;28;20467;-86
2024/01/20 02:33:24;;;;;;;22.73;12.87;;;;;;;-2.05;100.00;150850.47;5014969;28;20463;-86
2024/01/20 02:35:51;;;;;;;22.60;14.07;;;;;;;-2.10;100.00;150836.38;5051038;28;20866;-85
2024/01/20 02:38:17;;;;;;;29.13;15.57;;;;;;;-2.08;100.00;150841.50;5034066;28;20442;-85
2024/01/20 02:40:45;;;;;;;23.17;13.57;;;;;;;-2.26;100.00;150795.41;5031101;28;20450;-85
2024/01/20 02:43:11;;;;;;;27.67;14.47;;;;;;;-2.34;100.00;150774.91;5045996;28;20431;-85
2024/01/20 02:45:38;;;;;;;20.70;13.63;;;;;;;-2.28;100.00;150791.59;5025205;28;20458;-85
2024/01/20 02:48:05;;;;;;;25.27;13.53;;;;;;;-2.32;100.00;150780.03;5034423;28;21099;-85
2024/01/20 02:50:32;;;;;;;23.67;13.20;;;;;;;-2.32;100.00;150781.31;5011559;28;20925;-85
2024/01/20 02:52:58;;;;;;;21.87;14.17;;;;;;;-2.31;100.00;150782.59;5027389;28;21020;-85
2024/01/20 02:55:25;;;;;;;23.90;14.13;;;;;;;-2.34;100.00;150774.91;5016325;28;21031;-86
2024/01/20 02:57:53;;;;;;;26.03;13.90;;;;;;;-2.27;100.00;150792.81;5012146;28;20501;-85
2024/01/20 03:00:19;;;;;;;25.63;14.27;;;;;;;-2.24;100.00;150801.81;5011810;28;20456;-85
2024/01/20 03:02:46;;;;;;;22.90;14.20;;;;;;;-2.23;100.00;150803.09;5009976;28;20480;-86
2024/01/20 03:05:12;;;;;;;25.13;15.40;;;;;;;-2.23;100.00;150804.38;5010024;28;20456;-85
2024/01/20 03:07:39;;;;;;;25.87;14.87;;;;;;;-2.21;100.00;150808.19;4994811;28;20436;-85
2024/01/20 03:10:07;;;;;;;22.90;13.07;;;;;;;-2.15;100.00;150823.59;5006367;28;20448;-86
2024/01/20 03:12:34;;;;;;;18.20;12.03;;;;;;;-2.09;100.00;150838.97;5023359;28;20490;-85
2024/01/20 03:15:02;;;;;;;26.87;15.90;;;;;;;-2.03;100.00;150854.31;5026728;28;20460;-86
2024/01/20 03:17:29;;;;;;;20.97;14.10;;;;;;;-2.04;100.00;150851.78;5010992;28;20815;-85
2024/01/20 03:19:56;;;;;;;22.47;14.20;;;;;;;-2.02;100.00;150856.88;5011562;28;20502;-86
2024/01/20 03:22:23;;;;;;;20.17;12.70;;;;;;;-2.00;100.00;150862.00;5024453;28;20474;-85
2024/01/20 03:24:50;;;;;;;25.80;15.00;;;;;;;-1.92;100.00;150883.78;5010617;28;20451;-86
2024/01/20 03:27:18;;;;;;;25.10;15.07;;;;;;;-1.93;100.00;150879.91;5011318;28;20440;-86
2024/01/20 03:29:44;;;;;;;22.93;14.27;;;;;;;-1.98;100.00;150867.09;5028264;28;20455;-85
2024/01/20 03:32:12;;;;;;;19.07;13.60;;;;;;;-2.02;100.00;150858.16;5008586;28;20525;-86
2024/01/20 03:34:39;;;;;;;22.90;14.13;;;;;;;-1.98;100.00;150867.09;5015250;28;20531;-85
2024/01/20 03:37:06;;;;;;;24.93;14.43;;;;;;;-1.97;100.00;150869.69;5010352;28;20661;-85
2024/01/20 03:39:32;;;;;;;21.13;14.00;;;;;;;-2.00;100.00;150862.00;5008563;28;20529;-85
2024/01/20 03:41:59;;;;;;;21.60;13.30;;;;;;;-2.02;100.00;150856.88;5035305;28;20481;-85
2024/01/20 03:44:25;;;;;;;25.07;13.70;;;;;;;-2.07;100.00;150844.06;5011555;28;20954;-85
2024/01/20 03:46:52;;;;;;;24.90;14.53;;;;;;;-2.11;100.00;150833.81;4994764;28;20487;-85
2024/01/20 03:49:20;;;;;;;24.60;14.67;;;;;;;-2.08;100.00;150841.50;5028160;28;20454;-85
2024/01/20 03:51:46;;;;;;;22.33;14.13;;;;;;;-2.02;100.00;150856.88;5030584;28;20843;-85
2024/01/20 03:54:14;;;;;;;23.70;13.97;;;;;;;-1.92;100.00;150882.50;5026185;28;20436;-85
2024/01/20 03:56:44;;;;;;;26.53;14.83;;;;;;;-2.04;100.00;150851.78;5027811;28;21065;-85
2024/01/20 03:59:10;;;;;;;20.37;13.20;;;;;;;-2.12;100.00;150831.28;5045150;28;20454;-85
2024/01/20 04:01:37;;;;;;;25.33;14.63;;;;;;;-2.10;100.00;150836.38;5029232;28;20474;-85
2024/01/20 04:04:04;;;;;;;22.97;14.00;;;;;;;-2.14;100.00;150826.13;5029399;28;20442;-85
2024/01/20 04:06:32;;;;;;;22.63;14.33;;;;;;;-2.08;100.00;150842.78;5044838;28;20447;-85
2024/01/20 04:08:59;;;;;;;22.97;13.80;;;;;;;-1.99;100.00;150864.56;5028312;28;20485;-85
2024/01/20 04:11:25;;;;;;;22.77;13.47;;;;;;;-1.97;100.00;150870.97;5030297;28;20459;-85
2024/01/20 04:13:52;;;;;;;23.47;14.37;;;;;;;-1.95;100.00;150876.09;5045602;28;20462;-85
2024/01/20 04:16:18;;;;;;;25.77;14.03;;;;;;;-1.95;100.00;150874.78;5029315;28;20459;-85
2024/01/20 04:18:45;;;;;;;22.57;15.00;;;;;;;-1.99;100.00;150864.56;5039142;28;20466;-85
2024/01/20 04:21:11;;;;;;;24.80;14.80;;;;;;;-2.01;100.00;150860.69;5032422;28;20442;-84
2024/01/20 04:23:39;;;;;;;23.57;14.10;;;;;;;-1.98;100.00;150867.09;5031467;28;20450;-85
2024/01/20 04:26:06;;;;;;;25.87;14.40;;;;;;;-1.93;100.00;150881.19;5011998;28;20438;-85
2024/01/20 04:28:32;;;;;;;19.97;12.20;;;;;;;-1.89;100.00;150891.47;5021307;28;20459;-85
2024/01/20 04:30:58;;;;;;;20.90;13.77;;;;;;;-1.83;100.00;150905.56;5026506;28;20451;-85
2024/01/20 04:33:25;;;;;;;25.57;15.20;;;;;;;-1.90;100.00;150887.59;5025148;28;20454;-85
2024/01/20 04:35:51;;;;;;;21.63;13.77;;;;;;;-2.00;100.00;150862.00;5044964;28;20451;-85
2024/01/20 04:38:18;;;;;;;21.90;13.00;;;;;;;-2.15;100.00;150823.59;5042556;28;20490;-85
2024/01/20 04:40:46;;;;;;;22.90;15.43;;;;;;;-2.29;100.00;150787.72;5006644;28;20447;-85
2024/01/20 04:43:12;;;;;;;22.87;13.70;;;;;;;-2.28;100.00;150790.28;5022132;28;20533;-85
2024/01/20 04:45:39;;;;;;;22.53;14.17;;;;;;;-2.16;100.00;150821.00;5044274;28;20442;-85
2024/01/20 04:48:06;;;;;;;24.03;14.87;;;;;;;-2.11;100.00;150833.81;5025582;28;20473;-86
2024/01/20 04:50:32;;;;;;;24.90;15.20;;;;;;;-2.08;100.00;150842.78;5009951;28;20448;-85
2024/01/20 04:52:59;;;;;;;23.70;14.27;;;;;;;-2.13;100.00;150828.69;5025740;28;20459;-85
2024/01/20 04:55:25;;;;;;;20.97;13.80;;;;;;;-2.28;100.00;150790.28;5007936;28;20463;-86
2024/01/20 04:57:53;;;;;;;25.60;16.00;;;;;;;-2.44;100.00;150749.31;5009743;28;20861;-86
2024/01/20 05:00:19;;;;;;;27.30;15.03;;;;;;;-2.57;100.00;150718.56;5004197;28;20464;-85
2024/01/20 05:02:46;;;;;;;25.80;14.80;;;;;;;-2.59;100.00;150713.44;5042203;28;20480;-85
2024/01/20 05:05:13;;;;;;;23.77;15.20;;;;;;;-2.56;100.00;150719.84;4992430;28;21046;-85
2024/01/20 05:07:39;;;;;;;22.40;14.20;;;;;;;-2.56;100.00;150721.13;5009340;28;20452;-85
2024/01/20 05:10:06;;;;;;;25.57;14.27;;;;;;;-2.55;100.00;150723.72;5039601;28;20522;-85
2024/01/20 05:12:33;;;;;;;23.07;13.87;;;;;;;-2.57;100.00;150718.56;5023576;28;21008;-85
2024/01/20 05:15:01;;;;;;;22.33;13.70;;;;;;;-2.46;100.00;150746.72;5041230;28;21032;-86
2024/01/20 05:17:27;;;;;;;22.97;13.43;;;;;;;-2.49;100.00;150739.03;5027541;28;20535;-85
2024/01/20 05:19:54;;;;;;;28.00;16.17;;;;;;;-2.47;100.00;150744.19;5029110;28;20460;-85
2024/01/20 05:22:21;;;;;;;21.00;13.53;;;;;;;-2.51;100.00;150733.94;5009829;28;20996;-86
2024/01/20 05:24:47;;;;;;;25.83;15.40;;;;;;;-2.49;100.00;150739.03;5009330;28;20451;-85
2024/01/20 05:27:14;;;;;;;21.40;13.20;;;;;;;-2.48;100.00;150740.34;5009476;28;20811;-85
2024/01/20 05:29:40;;;;;;;21.13;13.10;;;;;;;-2.49;100.00;150739.03;5026330;28;20459;-86
2024/01/20 05:32:08;;;;;;;23.40;14.07;;;;;;;-2.34;100.00;150774.91;5027018;28;20439;-85
2024/01/20 05:34:35;;;;;;;28.37;14.87;;;;;;;-2.34;100.00;150774.91;5026814;28;20498;-86
2024/01/20 05:37:01;;;;;;;25.47;15.57;;;;;;;-2.46;100.00;150746.72;5009673;28;20443;-85
2024/01/20 05:39:28;;;;;;;27.00;15.20;;;;;;;-2.51;100.00;150732.66;5025745;28;20954;-86
2024/01/20 05:41:54;;;;;;;23.40;14.63;;;;;;;-2.41;100.00;150758.28;5027152;28;20965;-85
2024/01/20 05:44:21;;;;;;;29.27;15.40;;;;;;;-2.33;100.00;150777.50;5015592;28;20538;-86
2024/01/20 05:46:47;;;;;;;24.57;14.60;;;;;;;-2.36;100.00;150771.09;5007723;28;20526;-85
2024/01/20 05:49:15;;;;;;;23.30;15.50;;;;;;;-2.47;100.00;150744.19;5015265;28;20451;-86
2024/01/20 05:51:41;;;;;;;20.90;13.40;;;;;;;-2.40;100.00;150760.81;5012322;28;20459;-85
2024/01/20 05:54:08;;;;;;;21.53;13.80;;;;;;;-2.36;100.00;150771.09;5007929;28;20507;-86
2024/01/20 05:56:34;;;;;;;23.07;13.03;;;;;;;-2.29;100.00;150789.00;5012484;28;20467;-86
2024/01/20 05:59:01;;;;;;;24.33;14.57;;;;;;;-2.32;100.00;150780.03;5028103;28;20501;-86
2024/01/20 06:01:28;;;;;;;24.60;14.07;;;;;;;-2.46;100.00;150746.72;5008702;28;20457;-85
2024/01/20 06:03:55;;;;;;;22.30;13.60;;;;;;;-2.55;100.00;150722.44;5017881;28;20472;-85
2024/01/20 06:06:22;;;;;;;20.20;13.93;;;;;;;-2.55;100.00;150723.72;4988769;28;20554;-85
2024/01/20 06:08:49;;;;;;;27.40;14.40;;;;;;;-2.58;100.00;150714.75;5015259;28;20455;-85
2024/01/20 06:11:15;;;;;;;23.73;14.00;;;;;;;-2.61;100.00;150708.34;5016283;28;20463;-85
2024/01/20 06:13:42;;;;;;;20.00;13.40;;;;;;;-2.64;100.00;150700.66;5020904;28;20525;-85
2024/01/20 06:16:08;;;;;;;22.00;13.17;;;;;;;-2.67;100.00;150691.69;4998476;28;20471;-85
2024/01/20 06:18:35;;;;;;;26.70;15.37;;;;;;;-2.65;100.00;150696.84;5016519;28;20474;-86
2024/01/20 06:21:01;;;;;;;24.90;15.20;;;;;;;-2.75;100.00;150671.19;5016178;28;20452;-85
2024/01/20 06:23:29;;;;;;;26.50;14.13;;;;;;;-2.80;100.00;150658.41;5025168;28;20517;-86
2024/01/20 06:25:56;;;;;;;29.00;15.50;;;;;;;-2.84;100.00;150648.19;5008287;28;20468;-85
2024/01/20 06:28:23;;;;;;;29.20;15.90;;;;;;;-2.97;100.00;150616.19;5005231;28;20462;-85
2024/01/20 06:30:49;;;;;;;21.83;14.13;;;;;;;-3.00;100.00;150608.50;5018002;28;20472;-85
2024/01/20 06:33:16;;;;;;;24.57;14.10;;;;;;;-2.88;100.00;150637.91;4999237;28;20446;-85
2024/01/20 06:35:43;;;;;;;20.93;13.07;;;;;;;-2.84;100.00;150649.47;5017503;28;20486;-85
2024/01/20 06:38:09;;;;;;;20.20;12.70;;;;;;;-2.75;100.00;150672.47;5016383;28;20456;-84
2024/01/20 06:40:37;;;;;;;22.07;13.37;;;;;;;-2.76;100.00;150668.66;4985772;28;20460;-85
2024/01/20 06:43:04;;;;;;;23.00;13.67;;;;;;;-2.74;100.00;150673.78;4999587;28;20476;-85
2024/01/20 06:45:33;;;;;;;22.93;13.17;;;;;;;-2.78;100.00;150663.56;5015405;28;20464;-84
2024/01/20 06:48:00;;;;;;;21.37;14.17;;;;;;;-2.74;100.00;150675.06;5013288;28;21007;-85
2024/01/20 06:50:26;;;;;;;22.10;13.00;;;;;;;-2.72;100.00;150680.16;5017552;28;20472;-84
2024/01/20 06:52:53;;;;;;;20.30;13.10;;;;;;;-2.78;100.00;150664.78;4997365;28;20472;-84
2024/01/20 06:55:19;;;;;;;22.63;14.07;;;;;;;-2.82;100.00;150653.28;5014182;28;20517;-84
2024/01/20 06:57:47;;;;;;;22.37;14.70;;;;;;;-2.91;100.00;150630.28;4984434;28;20460;-85
2024/01/20 07:00:14;;;;;;;20.93;13.90;;;;;;;-2.91;100.00;150630.28;4999382;28;20456;-85
2024/01/20 07:02:41;;;;;;;23.67;13.87;;;;;;;-2.97;100.00;150616.19;4999218;28;20482;-84
2024/01/20 07:05:09;;;;;;;24.63;13.43;;;;;;;-3.05;100.00;150595.72;4998963;28;20457;-85
2024/01/20 07:07:37;;;;;;;25.47;12.47;;;;;;;-3.03;100.00;150599.53;5014532;28;20555;-85
2024/01/20 07:10:08;;;;;;;24.17;12.30;;;;;;;-3.01;100.00;150604.66;5014610;28;20456;-84
2024/01/20 07:12:35;;;;;;;26.90;14.33;;;;;;;-3.09;100.00;150586.75;4997622;28;20966;-85
2024/01/20 07:15:05;;;;;;;26.63;13.60;;;;;;;-3.22;100.00;150552.19;4984242;28;20456;-84
2024/01/20 07:17:31;;;;;;;22.67;12.90;;;;;;;-3.28;100.00;150536.84;5005522;28;20803;-84
2024/01/20 07:19:58;;;;;;;25.07;13.47;;;;;;;-3.24;100.00;150548.38;5018781;28;20453;-84
2024/01/20 07:22:25;;;;;;;25.47;14.23;;;;;;;-3.12;100.00;150579.06;5018350;28;20802;-84
2024/01/20 07:24:52;;;;;;;21.80;13.77;;;;;;;-2.98;100.00;150613.63;5002314;28;20453;-84
2024/01/20 07:27:18;;;;;;;23.47;14.10;;;;;;;-3.03;100.00;150600.84;5007124;28;20567;-84
2024/01/20 07:29:45;;;;;;;25.63;15.67;;;;;;;-2.98;100.00;150613.63;5015331;28;20553;-84
2024/01/20 07:32:13;;;;;;;24.27;14.63;;;;;;;-3.10;100.00;150582.94;5001282;28;20858;-83
2024/01/20 07:34:43;;;;;;;19.17;14.07;;;;;;;-3.14;100.00;150573.97;5003390;28;20465;-83
2024/01/20 07:37:09;;;;;;;20.00;12.73;;;;;;;-3.07;100.00;150591.84;5015927;28;20911;-84
2024/01/20 07:39:36;;;;;;;23.63;13.97;;;;;;;-3.09;100.00;150585.47;5016263;28;20456;-83
2024/01/20 07:42:02;;;;;;;21.43;13.50;;;;;;;-3.15;100.00;150570.13;5001173;28;20486;-84
2024/01/20 07:44:29;;;;;;;24.50;13.87;;;;;;;-3.03;100.00;150600.84;5001366;28;20486;-82
2024/01/20 07:46:58;;;;;;;19.53;13.43;;;;;;;-2.88;100.00;150639.22;5019060;28;20470;-83
2024/01/20 07:49:27;;;;;;;20.40;13.07;;;;;;;-2.88;100.00;150639.22;5016030;28;20447;-83
2024/01/20 07:51:54;;;;;;;22.70;12.60;;;;;;;-2.87;100.00;150641.78;5024562;28;20476;-83
2024/01/20 07:54:20;;;;;;;19.27;15.00;;;;;;;-2.93;100.00;150626.41;5018735;28;20452;-83
2024/01/20 07:56:49;;;;;;;18.77;12.00;;;;;;;-2.98;100.00;150613.63;5004738;28;20460;-83
2024/01/20 07:59:16;;;;;;;25.03;15.63;;;;;;;-3.09;100.00;150586.75;5020555;28;20456;-83
2024/01/20 08:01:43;;;;;;;23.63;14.47;;;;;;;-3.22;100.00;150552.19;5022603;28;21031;-83
2024/01/20 08:04:09;;;;;;;23.23;13.97;;;;;;;-3.16;100.00;150568.84;5004351;28;20471;-83
2024/01/20 08:06:37;;;;;;;24.10;14.27;;;;;;;-3.12;100.00;150577.78;5004046;28;20452;-84
2024/01/20 08:09:04;;;;;;;23.80;14.20;;;;;;;-3.07;100.00;150590.56;4999982;28;20447;-83
2024/01/20 08:11:31;;;;;;;25.67;14.00;;;;;;;-3.15;100.00;150570.13;4988802;28;20488;-84
2024/01/20 08:13:58;;;;;;;21.20;13.23;;;;;;;-3.26;100.00;150541.97;5005176;28;20443;-83
2024/01/20 08:16:28;;;;;;;23.13;13.87;;;;;;;-3.17;100.00;150566.28;5006968;28;20916;-83
2024/01/20 08:18:55;;;;;;;25.40;14.07;;;;;;;-3.17;100.00;150565.00;5005360;28;21036;-83
2024/01/20 08:21:22;;;;;;;22.40;13.50;;;;;;;-3.11;100.00;150580.34;5021754;28;20459;-84
2024/01/20 08:24:03;;;;;;;26.93;15.27;;;;;;;-3.08;100.00;150588.03;5019082;28;20947;-83
2024/01/20 08:26:32;;;;;;;25.97;14.60;;;;;;;-3.04;100.00;150598.25;5020415;28;20479;-83
2024/01/20 08:28:58;;;;;;;24.37;15.50;;;;;;;-2.90;100.00;150634.09;5020671;28;20476;-84
2024/01/20 08:31:25;;;;;;;22.03;14.33;;;;;;;-2.83;100.00;150650.75;5027268;28;20956;-84
2024/01/20 08:33:52;;;;;;;25.67;15.07;;;;;;;-2.73;100.00;150677.63;5032898;28;20533;-84
2024/01/20 08:36:20;;;;;;;26.40;16.40;;;;;;;-2.79;100.00;150662.25;5000876;28;20461;-84
2024/01/20 08:38:47;;;;;;;26.33;14.77;;;;;;;-2.95;100.00;150621.31;5003283;28;20451;-84
2024/01/20 08:41:15;;;;;;;20.60;14.80;;;;;;;-3.01;100.00;150605.94;5003808;28;20520;-84
2024/01/20 08:43:43;;;;;;;24.10;14.67;;;;;;;-2.98;100.00;150613.63;4999811;28;20447;-84
2024/01/20 08:46:11;;;;;;;27.50;15.43;;;;;;;-2.97;100.00;150614.91;5018452;28;20474;-84
2024/01/20 08:48:37;;;;;;;22.30;14.13;;;;;;;-2.87;100.00;150641.78;5032792;28;20458;-83
2024/01/20 08:51:04;;;;;;;24.50;16.30;;;;;;;-2.77;100.00;150666.09;5023088;28;20459;-83
2024/01/20 08:53:32;;;;;;;20.50;13.57;;;;;;;-2.91;100.00;150631.53;5025302;28;20488;-89
2024/01/20 08:55:59;;;;;;;31.10;18.17;;;;;;;-3.07;100.00;150590.56;5035609;28;21070;-83
2024/01/20 08:58:27;;;;;;;23.03;14.90;;;;;;;-3.08;100.00;150588.03;5006591;28;20453;-83
2024/01/20 09:00:53;;;;;;;24.60;14.70;;;;;;;-2.96;100.00;150618.72;5020363;28;20463;-83
2024/01/20 09:03:20;;;;;;;26.87;15.70;;;;;;;-2.90;100.00;150632.81;5034845;28;20474;-83
2024/01/20 09:05:46;;;;;;;20.43;12.00;;;;;;;-2.98;100.00;150612.34;5039668;28;20447;-83
2024/01/20 09:08:13;;;;;;;24.00;16.20;;;;;;;-3.14;100.00;150572.66;5037960;28;20440;-83
2024/01/20 09:10:40;;;;;;;26.50;15.23;;;;;;;-3.03;100.00;150600.84;5011235;28;20539;-84
2024/01/20 09:13:07;;;;;;;27.83;16.43;;;;;;;-2.97;100.00;150614.91;5044659;28;20446;-84
2024/01/20 09:15:35;;;;;;;22.50;13.70;;;;;;;-2.88;100.00;150637.91;5037902;28;20438;-83
2024/01/20 09:18:03;;;;;;;19.67;13.47;;;;;;;-2.78;100.00;150664.78;5020326;28;20800;-83
2024/01/20 09:20:30;;;;;;;22.73;15.67;;;;;;;-2.73;100.00;150676.34;5038675;28;20426;-83
2024/01/20 09:22:56;;;;;;;25.67;15.30;;;;;;;-2.63;100.00;150703.22;5035405;28;20466;-83
2024/01/20 09:25:23;;;;;;;27.87;15.53;;;;;;;-2.57;100.00;150718.56;5020754;28;20799;-83
2024/01/20 09:27:49;;;;;;;25.17;15.47;;;;;;;-2.48;100.00;150741.63;5040086;28;20459;-83
2024/01/20 09:30:17;;;;;;;26.13;14.97;;;;;;;-2.58;100.00;150714.75;5003897;28;20957;-83
2024/01/20 09:32:44;;;;;;;28.80;16.63;;;;;;;-2.90;100.00;150634.09;5033110;28;20462;-83
2024/01/20 09:35:11;;;;;;;27.53;17.03;;;;;;;-3.00;100.00;150608.50;5037546;28;20452;-83
2024/01/20 09:37:38;;;;;;;24.07;15.10;;;;;;;-2.98;100.00;150612.34;5038131;28;20804;-83
2024/01/20 09:40:06;;;;;;;28.83;15.20;;;;;;;-2.91;100.00;150630.28;5036971;28;20579;-83
2024/01/20 09:42:33;;;;;;;30.27;17.07;;;;;;;-2.80;100.00;150659.69;5034167;28;20950;-83
2024/01/20 09:45:00;;;;;;;24.77;15.07;;;;;;;-2.76;100.00;150669.94;5018858;28;20471;-83
2024/01/20 09:47:26;;;;;;;21.97;14.80;;;;;;;-2.69;100.00;150687.84;5035901;28;20478;-83
2024/01/20 09:49:54;;;;;;;22.43;14.03;;;;;;;-2.56;100.00;150721.13;5018611;28;20462;-83
2024/01/20 09:52:26;;;;;;;24.97;15.47;;;;;;;-2.62;100.00;150704.53;5030765;28;20422;-83
2024/01/20 09:55:02;;;;;;;28.10;16.70;;;;;;;-2.71;100.00;150682.75;5032430;28;20429;-83
2024/01/20 09:57:29;;;;;;;29.60;16.70;;;;;;;-2.96;100.00;150618.72;5020285;28;20829;-83
2024/01/20 09:59:57;;;;;;;27.77;17.37;;;;;;;-2.94;100.00;150623.88;5019969;28;20998;-83
2024/01/20 10:02:25;;;;;;;25.20;15.00;;;;;;;-2.89;100.00;150636.69;5005246;28;20458;-83
2024/01/20 10:04:52;;;;;;;28.10;16.03;;;;;;;-2.84;100.00;150649.47;5021493;28;20453;-83
2024/01/20 10:07:28;;;;;;;23.80;16.30;;;;;;;-2.85;100.00;150646.91;5020128;28;20502;-83
2024/01/20 10:09:55;;;;;;;24.63;14.87;;;;;;;-2.79;100.00;150662.25;5037542;28;21397;-83
2024/01/20 10:12:22;;;;;;;25.10;14.93;;;;;;;-2.76;100.00;150669.94;5034498;28;20545;-83
2024/01/20 10:14:49;;;;;;;29.23;16.70;;;;;;;-2.79;100.00;150662.25;5033915;28;20814;-83
2024/01/20 10:17:15;;;;;;;34.37;18.87;;;;;;;-2.79;100.00;150660.97;5036770;28;20828;-83
2024/01/20 10:19:42;;;;;;;25.20;16.40;;;;;;;-2.79;100.00;150660.97;5020820;28;20460;-82
2024/01/20 10:22:09;;;;;;;24.27;15.70;;;;;;;-2.92;100.00;150627.69;5025627;28;20516;-83
2024/01/20 10:24:46;;;;;;;23.57;14.83;;;;;;;-2.85;100.00;150645.59;5023028;28;20486;-83
2024/01/20 10:27:15;;;;;;;29.00;16.67;;;;;;;-2.85;100.00;150645.59;5035113;28;20533;-83
2024/01/20 10:29:42;;;;;;;26.70;15.10;;;;;;;-2.85;100.00;150646.91;5041280;28;20458;-83
2024/01/20 10:32:08;;;;;;;30.17;17.17;;;;;;;-2.86;100.00;150644.31;5022254;28;20431;-83
2024/01/20 10:34:35;;;;;;;29.40;17.13;;;;;;;-2.86;100.00;150644.31;5039186;28;20531;-83
2024/01/20 10:37:02;;;;;;;32.07;16.70;;;;;;;-2.78;100.00;150664.78;5005324;28;21002;-83
2024/01/20 10:39:33;;;;;;;26.60;15.23;;;;;;;-2.73;100.00;150677.63;5040990;28;20460;-83
2024/01/20 10:42:02;;;;;;;21.67;13.40;;;;;;;-2.62;100.00;150704.53;5035134;28;20478;-83
2024/01/20 10:44:32;;;;;;;23.27;16.20;;;;;;;-2.50;100.00;150736.50;5036959;28;20466;-83
2024/01/20 10:47:02;;;;;;;25.20;15.20;;;;;;;-2.44;100.00;150749.31;5038781;28;20516;-83
2024/01/20 10:49:29;;;;;;;28.30;16.67;;;;;;;-2.42;100.00;150754.41;5038120;28;20468;-83
2024/01/20 10:51:56;;;;;;;30.20;16.87;;;;;;;-2.38;100.00;150764.69;5023499;28;20464;-83
2024/01/20 10:54:23;;;;;;;23.83;15.80;;;;;;;-2.30;100.00;150785.19;5043744;28;20421;-83
2024/01/20 10:56:49;;;;;;;23.07;14.37;;;;;;;-2.20;100.00;150810.78;5035438;28;20822;-83
2024/01/20 10:59:18;;;;;;;23.77;13.70;;;;;;;-2.09;100.00;150838.97;5027851;28;20459;-82
2024/01/20 11:01:48;;;;;;;23.10;13.43;;;;;;;-2.08;100.00;150842.78;5038718;28;20739;-83